Jay Michael — WDD2051 — position and weather

sailwx.info

Track history (hours):
 
Tides and Currents Weather Stations Pressure Air Temp Water Temp Dewpoint Dewpoint Depression Visibility Wind Speed Wind Dir Waves Ship Positions

Jay Michael

Owner: Sterling Equipment Inc., Quincy, MA. More information available from US FCC via Universal Licensing System and Coast Guard Vessel Documentation Center.

Last reported at 2014-Nov-27 17:33 UTC. Time now 2014-Nov-28 17:02 UTC.
Position N 41°25' W 071°12'.

Length 21 m.

Type: Tug. MMSI: 367110280.

Date/timePositionNaut miles runAvg speedWind from/ knotsBaromVisibWave heightAir tempDewpointWater temp
2014-Nov-27 17:33N 41°25' W 071°12'9 9.3
2014-Nov-27 16:33N 41°22' W 071°24'8 8.4
2014-Nov-27 15:33N 41°21' W 071°35'8 8.2
2014-Nov-27 14:33N 41°19' W 071°46'8 7.6
2014-Nov-27 13:33N 41°18' W 071°56'7 7.0
2014-Nov-27 12:33N 41°20' W 072°05'2 1.6
2014-Nov-27 11:34N 41°21' W 072°05'0 0.0
2014-Nov-27 10:34N 41°21' W 072°05'0 0.0
2014-Nov-27 09:34N 41°21' W 072°05'0 0.0
2014-Nov-27 08:33N 41°21' W 072°05'0 0.0
2014-Nov-27 07:33N 41°21' W 072°05'0 0.0
2014-Nov-27 06:34N 41°21' W 072°05'0 0.0
2014-Nov-27 05:33N 41°21' W 072°05'0 0.0
2014-Nov-27 04:33N 41°21' W 072°05'0 0.0
2014-Nov-27 03:34N 41°21' W 072°05'0 0.0
2014-Nov-27 02:33N 41°21' W 072°05'0 0.0
2014-Nov-27 01:34N 41°21' W 072°05'0 0.0
2014-Nov-27 00:34N 41°21' W 072°05'0 0.0
2014-Nov-26 23:34N 41°21' W 072°05'0 0.0
2014-Nov-26 22:33N 41°21' W 072°05'0 0.0
2014-Nov-26 21:33N 41°21' W 072°05'0 0.0
2014-Nov-26 20:34N 41°21' W 072°05'0 0.0
2014-Nov-26 19:33N 41°21' W 072°05'0 0.0
2014-Nov-26 18:34N 41°21' W 072°05'4 3.7
2014-Nov-26 17:34N 41°18' W 072°04'5 5.2
2014-Nov-26 16:33N 41°21' W 071°58'0 0.1
2014-Nov-26 15:33N 41°21' W 071°58'0 0.0
2014-Nov-26 14:34N 41°21' W 071°58'2 2.1
2014-Nov-26 13:34N 41°19' W 071°59'4 3.7
2014-Nov-26 12:34N 41°17' W 072°04'30 2.6
2014-Nov-26 01:18N 41°11' W 072°43'3 4.2
2014-Nov-26 00:34N 41°10' W 072°47'5 4.5
2014-Nov-25 23:34N 41°09' W 072°52'5 4.8
2014-Nov-25 22:34N 41°08' W 072°59'5 4.9
2014-Nov-25 21:34N 41°07' W 073°05'5 5.2
2014-Nov-25 20:33N 41°05' W 073°12'5 4.8
2014-Nov-25 19:33N 41°04' W 073°18'4 4.5
2014-Nov-25 18:34N 41°02' W 073°23'4 4.1
2014-Nov-25 17:31N 41°01' W 073°28'4 3.9
2014-Nov-25 16:24N 40°59' W 073°34'3 3.7
2014-Nov-25 15:29N 40°57' W 073°37'5 3.8
2014-Nov-25 14:14N 40°54' W 073°43'3 4.3
2014-Nov-25 13:30N 40°52' W 073°45'6 4.6
2014-Nov-25 12:08N 40°48' W 073°52'3 5.9
2014-Nov-25 11:33N 40°47' W 073°56'5 5.1
2014-Nov-25 10:33N 40°42' W 073°59'3 3.4
2014-Nov-25 09:33N 40°40' W 074°03'4 3.7
2014-Nov-25 08:33N 40°39' W 074°07'4 3.6
2014-Nov-25 07:33N 40°38' W 074°12'0 0.0
2014-Nov-25 06:11N 40°38' W 074°12'0 0.0
2014-Nov-25 05:33N 40°38' W 074°12'0 0.0
2014-Nov-25 04:11N 40°38' W 074°12'0 0.0
2014-Nov-25 01:25N 40°38' W 074°12'0 0.0
2014-Nov-24 23:19N 40°38' W 074°12'1 0.9
2014-Nov-24 22:33N 40°39' W 074°11'1 0.7
2014-Nov-24 21:32N 40°38' W 074°12'2 2.0
2014-Nov-24 20:33N 40°39' W 074°09'0 0.3
2014-Nov-24 19:30N 40°39' W 074°09'2 1.9
2014-Nov-24 18:33N 40°39' W 074°11'0 0.0
2014-Nov-24 17:33N 40°39' W 074°11'0 0.0
2014-Nov-24 16:33N 40°39' W 074°11'1 0.6
2014-Nov-24 15:32N 40°38' W 074°12'0 0.0
2014-Nov-24 14:33N 40°38' W 074°12'0 0.0
2014-Nov-24 13:33N 40°38' W 074°12'0 0.0
2014-Nov-24 12:33N 40°38' W 074°12'0 0.3
2014-Nov-24 11:33N 40°38' W 074°12'0 0.1
2014-Nov-24 10:33N 40°38' W 074°11'2 1.6
2014-Nov-24 09:33N 40°38' W 074°09'0 0.0
2014-Nov-24 08:31N 40°38' W 074°09'0 0.0
2014-Nov-24 07:33N 40°38' W 074°09'0 0.0
2014-Nov-24 06:33N 40°38' W 074°09'0 0.0
2014-Nov-24 05:33N 40°38' W 074°09'0 0.0
2014-Nov-24 04:33N 40°38' W 074°09'0 0.0
2014-Nov-24 03:33N 40°38' W 074°09'0 0.0
2014-Nov-24 02:33N 40°38' W 074°09'0 0.0
2014-Nov-24 01:33N 40°38' W 074°09'0 0.0
2014-Nov-24 00:33N 40°38' W 074°09'0 0.0
2014-Nov-23 23:33N 40°38' W 074°09'0 0.0
2014-Nov-23 22:33N 40°38' W 074°09'0 0.0
2014-Nov-23 21:33N 40°38' W 074°09'0 0.0
2014-Nov-23 20:32N 40°38' W 074°09'0 0.0
2014-Nov-23 19:33N 40°38' W 074°09'0 0.0
2014-Nov-23 18:33N 40°38' W 074°09'0 0.0
2014-Nov-23 17:33N 40°38' W 074°09'0 0.0
2014-Nov-23 16:33N 40°38' W 074°09'0 0.0
2014-Nov-23 15:33N 40°38' W 074°09'0 0.0
2014-Nov-23 14:33N 40°38' W 074°09'0 0.0
2014-Nov-23 13:33N 40°38' W 074°09'0 0.0
2014-Nov-23 12:33N 40°38' W 074°09'0 0.0
2014-Nov-23 11:33N 40°38' W 074°09'0 0.0
2014-Nov-23 10:33N 40°38' W 074°09'0 0.0
2014-Nov-23 09:33N 40°38' W 074°09'0 0.0
2014-Nov-23 08:33N 40°38' W 074°09'0 0.0
2014-Nov-23 07:33N 40°38' W 074°09'0 0.0
2014-Nov-23 06:33N 40°38' W 074°09'0 0.0
2014-Nov-23 05:33N 40°38' W 074°09'0 0.0
2014-Nov-23 04:33N 40°38' W 074°09'0 0.0
2014-Nov-23 03:33N 40°38' W 074°09'0 0.0
2014-Nov-23 02:33N 40°38' W 074°09'0 0.0
2014-Nov-23 01:33N 40°38' W 074°09'0 0.0
2014-Nov-23 00:33N 40°38' W 074°09'0 0.0
2014-Nov-22 23:33N 40°38' W 074°09'0 0.0
2014-Nov-22 22:33N 40°38' W 074°09'2 1.8
2014-Nov-22 21:29N 40°38' W 074°12'0 0.3
2014-Nov-22 20:27N 40°38' W 074°11'0 0.4
2014-Nov-22 19:26N 40°38' W 074°12'0 0.1
2014-Nov-22 18:33N 40°38' W 074°12'0 0.0
2014-Nov-22 17:33N 40°38' W 074°12'1 0.8
2014-Nov-22 16:31N 40°39' W 074°11'1 0.8
2014-Nov-22 15:31N 40°38' W 074°12'0 0.4
2014-Nov-22 14:32N 40°39' W 074°11'0 0.0
2014-Nov-22 13:33N 40°39' W 074°11'0 0.1
2014-Nov-22 12:33N 40°39' W 074°11'0 0.1
2014-Nov-22 11:33N 40°39' W 074°11'0 0.0
2014-Nov-22 10:33N 40°39' W 074°11'0 0.0
2014-Nov-22 09:30N 40°39' W 074°11'0 0.0
2014-Nov-22 08:33N 40°39' W 074°11'0 0.0
2014-Nov-22 06:19N 40°39' W 074°11'0 0.0
2014-Nov-22 05:30N 40°39' W 074°11'0 0.0
2014-Nov-22 04:33N 40°39' W 074°11'0 0.0
2014-Nov-22 03:33N 40°39' W 074°11'0 0.0
2014-Nov-22 02:33N 40°39' W 074°11'0 0.0
2014-Nov-22 01:33N 40°39' W 074°11'0 0.0
2014-Nov-22 00:33N 40°39' W 074°11'0 0.0
2014-Nov-21 23:33N 40°39' W 074°11'0 0.0
2014-Nov-21 22:33N 40°39' W 074°11'0 0.1
2014-Nov-21 21:33N 40°39' W 074°11'0 0.0
2014-Nov-21 20:33N 40°39' W 074°11'0 0.0
2014-Nov-21 19:33N 40°39' W 074°11'0 0.0
2014-Nov-21 18:33N 40°39' W 074°11'0 0.0
2014-Nov-21 17:33N 40°39' W 074°11'1 1.5
2014-Nov-21 16:33N 40°38' W 074°09'1 0.6
2014-Nov-21 15:33N 40°39' W 074°09'2 1.8
2014-Nov-21 14:33N 40°39' W 074°11'1 0.7
2014-Nov-21 13:32N 40°38' W 074°12'0 0.0
2014-Nov-21 12:33N 40°38' W 074°12'0 0.0
2014-Nov-21 11:32N 40°38' W 074°12'0 0.0
2014-Nov-21 10:32N 40°38' W 074°12'0 0.0
2014-Nov-21 09:33N 40°38' W 074°12'0 0.0
2014-Nov-21 08:32N 40°38' W 074°12'0 0.0
2014-Nov-21 07:11N 40°38' W 074°12'0 0.0
2014-Nov-21 06:33N 40°38' W 074°12'0 0.0
2014-Nov-21 05:33N 40°38' W 074°12'0 0.0
2014-Nov-21 04:24N 40°38' W 074°12'0 0.0
2014-Nov-21 03:32N 40°38' W 074°12'0 0.0
2014-Nov-21 02:33N 40°38' W 074°12'0 0.0
2014-Nov-21 01:30N 40°38' W 074°12'0 0.0
2014-Nov-21 00:32N 40°38' W 074°12'0 0.0
2014-Nov-20 23:30N 40°38' W 074°12'1 0.7
2014-Nov-20 22:33N 40°39' W 074°11'0 0.4
2014-Nov-20 21:33N 40°38' W 074°12'0 0.2
2014-Nov-20 20:33N 40°38' W 074°12'0 0.0
2014-Nov-20 19:33N 40°38' W 074°12'0 0.0
2014-Nov-20 18:31N 40°38' W 074°12'0 0.0
2014-Nov-20 17:32N 40°38' W 074°12'0 0.1
2014-Nov-20 16:34N 40°38' W 074°12'0 0.0
2014-Nov-20 15:34N 40°38' W 074°12'1 0.9
2014-Nov-20 14:32N 40°39' W 074°11'1 1.2
2014-Nov-20 13:33N 40°38' W 074°09'0 0.0
2014-Nov-20 12:34N 40°38' W 074°09'0 0.0
2014-Nov-20 11:33N 40°38' W 074°09'0 0.0
2014-Nov-20 10:33N 40°38' W 074°09'0 0.0
2014-Nov-20 09:33N 40°38' W 074°09'0 0.0
2014-Nov-20 08:33N 40°38' W 074°09'0 0.0
2014-Nov-20 07:33N 40°38' W 074°09'0 0.0
2014-Nov-20 06:33N 40°38' W 074°09'0 0.0
2014-Nov-20 05:33N 40°38' W 074°09'0 0.0
2014-Nov-20 04:33N 40°38' W 074°09'0 0.0
2014-Nov-20 03:33N 40°38' W 074°09'0 0.0
2014-Nov-20 02:33N 40°38' W 074°09'0 0.0
2014-Nov-20 01:33N 40°38' W 074°09'0 0.0
2014-Nov-20 00:33N 40°38' W 074°09'0 0.0
2014-Nov-19 23:33N 40°38' W 074°09'0 0.0
2014-Nov-19 22:33N 40°38' W 074°09'0 0.0
2014-Nov-19 21:33N 40°38' W 074°09'0 0.0
2014-Nov-19 20:33N 40°38' W 074°09'0 0.0
2014-Nov-19 19:32N 40°38' W 074°09'1 0.9
2014-Nov-19 18:26N 40°39' W 074°10'1 1.4
2014-Nov-19 17:33N 40°38' W 074°12'0 0.0
2014-Nov-19 16:33N 40°38' W 074°12'0 0.0
2014-Nov-19 15:33N 40°38' W 074°12'2 1.9
2014-Nov-19 14:33N 40°38' W 074°09'0 0.0
2014-Nov-19 13:33N 40°38' W 074°09'0 0.0
2014-Nov-19 12:33N 40°38' W 074°09'0 0.0
2014-Nov-19 11:33N 40°38' W 074°09'0 0.0
2014-Nov-19 10:33N 40°38' W 074°09'0 0.0
2014-Nov-19 09:33N 40°38' W 074°09'0 0.0
2014-Nov-19 08:33N 40°38' W 074°09'0 0.0
2014-Nov-19 07:33N 40°38' W 074°09'0 0.0
2014-Nov-19 06:33N 40°38' W 074°09'0 0.0
2014-Nov-19 05:33N 40°38' W 074°09'0 0.0
2014-Nov-19 04:33N 40°38' W 074°09'0 0.0
2014-Nov-19 03:33N 40°38' W 074°09'0 0.0
2014-Nov-19 02:33N 40°38' W 074°09'0 0.0
2014-Nov-19 01:33N 40°38' W 074°09'0 0.0
2014-Nov-19 00:33N 40°38' W 074°09'0 0.0
2014-Nov-18 23:33N 40°38' W 074°09'0 0.0
2014-Nov-18 22:33N 40°38' W 074°09'0 0.0
2014-Nov-18 21:33N 40°38' W 074°09'0 0.0
2014-Nov-18 20:33N 40°38' W 074°09'0 0.0
2014-Nov-18 19:33N 40°38' W 074°09'2 1.5
2014-Nov-18 18:33N 40°39' W 074°11'1 0.5
2014-Nov-18 17:33N 40°38' W 074°12'0 0.1
2014-Nov-18 16:33N 40°38' W 074°12'2 1.9
2014-Nov-18 15:33N 40°38' W 074°09'0 0.0
2014-Nov-18 14:33N 40°38' W 074°09'0 0.0
2014-Nov-18 13:33N 40°38' W 074°09'0 0.0
2014-Nov-18 12:33N 40°38' W 074°09'0 0.0
2014-Nov-18 11:33N 40°38' W 074°09'0 0.0
2014-Nov-18 10:33N 40°38' W 074°09'0 0.0
2014-Nov-18 09:33N 40°38' W 074°09'0 0.0
2014-Nov-18 08:33N 40°38' W 074°09'0 0.0
2014-Nov-18 07:33N 40°38' W 074°09'0 0.0
2014-Nov-18 06:33N 40°38' W 074°09'0 0.0
2014-Nov-18 05:33N 40°38' W 074°09'0 0.0
2014-Nov-18 04:33N 40°38' W 074°09'0 0.0
2014-Nov-18 03:33N 40°38' W 074°09'0 0.0
2014-Nov-18 02:33N 40°38' W 074°09'0 0.0
2014-Nov-18 01:33N 40°38' W 074°09'0 0.0
2014-Nov-18 00:33N 40°38' W 074°09'0 0.0
2014-Nov-17 23:33N 40°38' W 074°09'0 0.0
2014-Nov-17 22:33N 40°38' W 074°09'0 0.0
2014-Nov-17 21:33N 40°38' W 074°09'0 0.0
2014-Nov-17 20:33N 40°38' W 074°09'0 0.0
2014-Nov-17 19:33N 40°38' W 074°09'0 0.0
2014-Nov-17 18:34N 40°38' W 074°09'0 0.0
2014-Nov-17 17:34N 40°38' W 074°09'  
Track history (hours):
 
Tides and Currents Weather Stations Pressure Air Temp Water Temp Dewpoint Dewpoint Depression Visibility Wind Speed Wind Dir Waves Ship Positions

Jay Michael

Owner: Sterling Equipment Inc., Quincy, MA. More information available from US FCC via Universal Licensing System and Coast Guard Vessel Documentation Center.

Last reported at 2014-Nov-27 17:33 UTC. Time now 2014-Nov-28 17:02 UTC.
Position N 41°25' W 071°12'.

Length 21 m.

Type: Tug. MMSI: 367110280.

Date/timePositionNaut miles runAvg speedWind from/ knotsBaromVisibWave heightAir tempDewpointWater temp
2014-Nov-27 17:33N 41°25' W 071°12'9 9.3
2014-Nov-27 16:33N 41°22' W 071°24'8 8.4
2014-Nov-27 15:33N 41°21' W 071°35'8 8.2
2014-Nov-27 14:33N 41°19' W 071°46'8 7.6
2014-Nov-27 13:33N 41°18' W 071°56'7 7.0
2014-Nov-27 12:33N 41°20' W 072°05'2 1.6
2014-Nov-27 11:34N 41°21' W 072°05'0 0.0
2014-Nov-27 10:34N 41°21' W 072°05'0 0.0
2014-Nov-27 09:34N 41°21' W 072°05'0 0.0
2014-Nov-27 08:33N 41°21' W 072°05'0 0.0
2014-Nov-27 07:33N 41°21' W 072°05'0 0.0
2014-Nov-27 06:34N 41°21' W 072°05'0 0.0
2014-Nov-27 05:33N 41°21' W 072°05'0 0.0
2014-Nov-27 04:33N 41°21' W 072°05'0 0.0
2014-Nov-27 03:34N 41°21' W 072°05'0 0.0
2014-Nov-27 02:33N 41°21' W 072°05'0 0.0
2014-Nov-27 01:34N 41°21' W 072°05'0 0.0
2014-Nov-27 00:34N 41°21' W 072°05'0 0.0
2014-Nov-26 23:34N 41°21' W 072°05'0 0.0
2014-Nov-26 22:33N 41°21' W 072°05'0 0.0
2014-Nov-26 21:33N 41°21' W 072°05'0 0.0
2014-Nov-26 20:34N 41°21' W 072°05'0 0.0
2014-Nov-26 19:33N 41°21' W 072°05'0 0.0
2014-Nov-26 18:34N 41°21' W 072°05'4 3.7
2014-Nov-26 17:34N 41°18' W 072°04'5 5.2
2014-Nov-26 16:33N 41°21' W 071°58'0 0.1
2014-Nov-26 15:33N 41°21' W 071°58'0 0.0
2014-Nov-26 14:34N 41°21' W 071°58'2 2.1
2014-Nov-26 13:34N 41°19' W 071°59'4 3.7
2014-Nov-26 12:34N 41°17' W 072°04'30 2.6
2014-Nov-26 01:18N 41°11' W 072°43'3 4.2
2014-Nov-26 00:34N 41°10' W 072°47'5 4.5
2014-Nov-25 23:34N 41°09' W 072°52'5 4.8
2014-Nov-25 22:34N 41°08' W 072°59'5 4.9
2014-Nov-25 21:34N 41°07' W 073°05'5 5.2
2014-Nov-25 20:33N 41°05' W 073°12'5 4.8
2014-Nov-25 19:33N 41°04' W 073°18'4 4.5
2014-Nov-25 18:34N 41°02' W 073°23'4 4.1
2014-Nov-25 17:31N 41°01' W 073°28'4 3.9
2014-Nov-25 16:24N 40°59' W 073°34'3 3.7
2014-Nov-25 15:29N 40°57' W 073°37'5 3.8
2014-Nov-25 14:14N 40°54' W 073°43'3 4.3
2014-Nov-25 13:30N 40°52' W 073°45'6 4.6
2014-Nov-25 12:08N 40°48' W 073°52'3 5.9
2014-Nov-25 11:33N 40°47' W 073°56'5 5.1
2014-Nov-25 10:33N 40°42' W 073°59'3 3.4
2014-Nov-25 09:33N 40°40' W 074°03'4 3.7
2014-Nov-25 08:33N 40°39' W 074°07'4 3.6
2014-Nov-25 07:33N 40°38' W 074°12'0 0.0
2014-Nov-25 06:11N 40°38' W 074°12'0 0.0
2014-Nov-25 05:33N 40°38' W 074°12'0 0.0
2014-Nov-25 04:11N 40°38' W 074°12'0 0.0
2014-Nov-25 01:25N 40°38' W 074°12'0 0.0
2014-Nov-24 23:19N 40°38' W 074°12'1 0.9
2014-Nov-24 22:33N 40°39' W 074°11'1 0.7
2014-Nov-24 21:32N 40°38' W 074°12'2 2.0
2014-Nov-24 20:33N 40°39' W 074°09'0 0.3
2014-Nov-24 19:30N 40°39' W 074°09'2 1.9
2014-Nov-24 18:33N 40°39' W 074°11'0 0.0
2014-Nov-24 17:33N 40°39' W 074°11'0 0.0
2014-Nov-24 16:33N 40°39' W 074°11'1 0.6
2014-Nov-24 15:32N 40°38' W 074°12'0 0.0
2014-Nov-24 14:33N 40°38' W 074°12'0 0.0
2014-Nov-24 13:33N 40°38' W 074°12'0 0.0
2014-Nov-24 12:33N 40°38' W 074°12'0 0.3
2014-Nov-24 11:33N 40°38' W 074°12'0 0.1
2014-Nov-24 10:33N 40°38' W 074°11'2 1.6
2014-Nov-24 09:33N 40°38' W 074°09'0 0.0
2014-Nov-24 08:31N 40°38' W 074°09'0 0.0
2014-Nov-24 07:33N 40°38' W 074°09'0 0.0
2014-Nov-24 06:33N 40°38' W 074°09'0 0.0
2014-Nov-24 05:33N 40°38' W 074°09'0 0.0
2014-Nov-24 04:33N 40°38' W 074°09'0 0.0
2014-Nov-24 03:33N 40°38' W 074°09'0 0.0
2014-Nov-24 02:33N 40°38' W 074°09'0 0.0
2014-Nov-24 01:33N 40°38' W 074°09'0 0.0
2014-Nov-24 00:33N 40°38' W 074°09'0 0.0
2014-Nov-23 23:33N 40°38' W 074°09'0 0.0
2014-Nov-23 22:33N 40°38' W 074°09'0 0.0
2014-Nov-23 21:33N 40°38' W 074°09'0 0.0
2014-Nov-23 20:32N 40°38' W 074°09'0 0.0
2014-Nov-23 19:33N 40°38' W 074°09'0 0.0
2014-Nov-23 18:33N 40°38' W 074°09'0 0.0
2014-Nov-23 17:33N 40°38' W 074°09'0 0.0
2014-Nov-23 16:33N 40°38' W 074°09'0 0.0
2014-Nov-23 15:33N 40°38' W 074°09'0 0.0
2014-Nov-23 14:33N 40°38' W 074°09'0 0.0
2014-Nov-23 13:33N 40°38' W 074°09'0 0.0
2014-Nov-23 12:33N 40°38' W 074°09'0 0.0
2014-Nov-23 11:33N 40°38' W 074°09'0 0.0
2014-Nov-23 10:33N 40°38' W 074°09'0 0.0
2014-Nov-23 09:33N 40°38' W 074°09'0 0.0
2014-Nov-23 08:33N 40°38' W 074°09'0 0.0
2014-Nov-23 07:33N 40°38' W 074°09'0 0.0
2014-Nov-23 06:33N 40°38' W 074°09'0 0.0
2014-Nov-23 05:33N 40°38' W 074°09'0 0.0
2014-Nov-23 04:33N 40°38' W 074°09'0 0.0
2014-Nov-23 03:33N 40°38' W 074°09'0 0.0
2014-Nov-23 02:33N 40°38' W 074°09'0 0.0
2014-Nov-23 01:33N 40°38' W 074°09'0 0.0
2014-Nov-23 00:33N 40°38' W 074°09'0 0.0
2014-Nov-22 23:33N 40°38' W 074°09'0 0.0
2014-Nov-22 22:33N 40°38' W 074°09'2 1.8
2014-Nov-22 21:29N 40°38' W 074°12'0 0.3
2014-Nov-22 20:27N 40°38' W 074°11'0 0.4
2014-Nov-22 19:26N 40°38' W 074°12'0 0.1
2014-Nov-22 18:33N 40°38' W 074°12'0 0.0
2014-Nov-22 17:33N 40°38' W 074°12'1 0.8
2014-Nov-22 16:31N 40°39' W 074°11'1 0.8
2014-Nov-22 15:31N 40°38' W 074°12'0 0.4
2014-Nov-22 14:32N 40°39' W 074°11'0 0.0
2014-Nov-22 13:33N 40°39' W 074°11'0 0.1
2014-Nov-22 12:33N 40°39' W 074°11'0 0.1
2014-Nov-22 11:33N 40°39' W 074°11'0 0.0
2014-Nov-22 10:33N 40°39' W 074°11'0 0.0
2014-Nov-22 09:30N 40°39' W 074°11'0 0.0
2014-Nov-22 08:33N 40°39' W 074°11'0 0.0
2014-Nov-22 06:19N 40°39' W 074°11'0 0.0
2014-Nov-22 05:30N 40°39' W 074°11'0 0.0
2014-Nov-22 04:33N 40°39' W 074°11'0 0.0
2014-Nov-22 03:33N 40°39' W 074°11'0 0.0
2014-Nov-22 02:33N 40°39' W 074°11'0 0.0
2014-Nov-22 01:33N 40°39' W 074°11'0 0.0
2014-Nov-22 00:33N 40°39' W 074°11'0 0.0
2014-Nov-21 23:33N 40°39' W 074°11'0 0.0
2014-Nov-21 22:33N 40°39' W 074°11'0 0.1
2014-Nov-21 21:33N 40°39' W 074°11'0 0.0
2014-Nov-21 20:33N 40°39' W 074°11'0 0.0
2014-Nov-21 19:33N 40°39' W 074°11'0 0.0
2014-Nov-21 18:33N 40°39' W 074°11'0 0.0
2014-Nov-21 17:33N 40°39' W 074°11'1 1.5
2014-Nov-21 16:33N 40°38' W 074°09'1 0.6
2014-Nov-21 15:33N 40°39' W 074°09'2 1.8
2014-Nov-21 14:33N 40°39' W 074°11'1 0.7
2014-Nov-21 13:32N 40°38' W 074°12'0 0.0
2014-Nov-21 12:33N 40°38' W 074°12'0 0.0
2014-Nov-21 11:32N 40°38' W 074°12'0 0.0
2014-Nov-21 10:32N 40°38' W 074°12'0 0.0
2014-Nov-21 09:33N 40°38' W 074°12'0 0.0
2014-Nov-21 08:32N 40°38' W 074°12'0 0.0
2014-Nov-21 07:11N 40°38' W 074°12'0 0.0
2014-Nov-21 06:33N 40°38' W 074°12'0 0.0
2014-Nov-21 05:33N 40°38' W 074°12'0 0.0
2014-Nov-21 04:24N 40°38' W 074°12'0 0.0
2014-Nov-21 03:32N 40°38' W 074°12'0 0.0
2014-Nov-21 02:33N 40°38' W 074°12'0 0.0
2014-Nov-21 01:30N 40°38' W 074°12'0 0.0
2014-Nov-21 00:32N 40°38' W 074°12'0 0.0
2014-Nov-20 23:30N 40°38' W 074°12'1 0.7
2014-Nov-20 22:33N 40°39' W 074°11'0 0.4
2014-Nov-20 21:33N 40°38' W 074°12'0 0.2
2014-Nov-20 20:33N 40°38' W 074°12'0 0.0
2014-Nov-20 19:33N 40°38' W 074°12'0 0.0
2014-Nov-20 18:31N 40°38' W 074°12'0 0.0
2014-Nov-20 17:32N 40°38' W 074°12'0 0.1
2014-Nov-20 16:34N 40°38' W 074°12'0 0.0
2014-Nov-20 15:34N 40°38' W 074°12'1 0.9
2014-Nov-20 14:32N 40°39' W 074°11'1 1.2
2014-Nov-20 13:33N 40°38' W 074°09'0 0.0
2014-Nov-20 12:34N 40°38' W 074°09'0 0.0
2014-Nov-20 11:33N 40°38' W 074°09'0 0.0
2014-Nov-20 10:33N 40°38' W 074°09'0 0.0
2014-Nov-20 09:33N 40°38' W 074°09'0 0.0
2014-Nov-20 08:33N 40°38' W 074°09'0 0.0
2014-Nov-20 07:33N 40°38' W 074°09'0 0.0
2014-Nov-20 06:33N 40°38' W 074°09'0 0.0
2014-Nov-20 05:33N 40°38' W 074°09'0 0.0
2014-Nov-20 04:33N 40°38' W 074°09'0 0.0
2014-Nov-20 03:33N 40°38' W 074°09'0 0.0
2014-Nov-20 02:33N 40°38' W 074°09'0 0.0
2014-Nov-20 01:33N 40°38' W 074°09'0 0.0
2014-Nov-20 00:33N 40°38' W 074°09'0 0.0
2014-Nov-19 23:33N 40°38' W 074°09'0 0.0
2014-Nov-19 22:33N 40°38' W 074°09'0 0.0
2014-Nov-19 21:33N 40°38' W 074°09'0 0.0
2014-Nov-19 20:33N 40°38' W 074°09'0 0.0
2014-Nov-19 19:32N 40°38' W 074°09'1 0.9
2014-Nov-19 18:26N 40°39' W 074°10'1 1.4
2014-Nov-19 17:33N 40°38' W 074°12'0 0.0
2014-Nov-19 16:33N 40°38' W 074°12'0 0.0
2014-Nov-19 15:33N 40°38' W 074°12'2 1.9
2014-Nov-19 14:33N 40°38' W 074°09'0 0.0
2014-Nov-19 13:33N 40°38' W 074°09'0 0.0
2014-Nov-19 12:33N 40°38' W 074°09'0 0.0
2014-Nov-19 11:33N 40°38' W 074°09'0 0.0
2014-Nov-19 10:33N 40°38' W 074°09'0 0.0
2014-Nov-19 09:33N 40°38' W 074°09'0 0.0
2014-Nov-19 08:33N 40°38' W 074°09'0 0.0
2014-Nov-19 07:33N 40°38' W 074°09'0 0.0
2014-Nov-19 06:33N 40°38' W 074°09'0 0.0
2014-Nov-19 05:33N 40°38' W 074°09'0 0.0
2014-Nov-19 04:33N 40°38' W 074°09'0 0.0
2014-Nov-19 03:33N 40°38' W 074°09'0 0.0
2014-Nov-19 02:33N 40°38' W 074°09'0 0.0
2014-Nov-19 01:33N 40°38' W 074°09'0 0.0
2014-Nov-19 00:33N 40°38' W 074°09'0 0.0
2014-Nov-18 23:33N 40°38' W 074°09'0 0.0
2014-Nov-18 22:33N 40°38' W 074°09'0 0.0
2014-Nov-18 21:33N 40°38' W 074°09'0 0.0
2014-Nov-18 20:33N 40°38' W 074°09'0 0.0
2014-Nov-18 19:33N 40°38' W 074°09'2 1.5
2014-Nov-18 18:33N 40°39' W 074°11'1 0.5
2014-Nov-18 17:33N 40°38' W 074°12'0 0.1
2014-Nov-18 16:33N 40°38' W 074°12'2 1.9
2014-Nov-18 15:33N 40°38' W 074°09'0 0.0
2014-Nov-18 14:33N 40°38' W 074°09'0 0.0
2014-Nov-18 13:33N 40°38' W 074°09'0 0.0
2014-Nov-18 12:33N 40°38' W 074°09'0 0.0
2014-Nov-18 11:33N 40°38' W 074°09'0 0.0
2014-Nov-18 10:33N 40°38' W 074°09'0 0.0
2014-Nov-18 09:33N 40°38' W 074°09'0 0.0
2014-Nov-18 08:33N 40°38' W 074°09'0 0.0
2014-Nov-18 07:33N 40°38' W 074°09'0 0.0
2014-Nov-18 06:33N 40°38' W 074°09'0 0.0
2014-Nov-18 05:33N 40°38' W 074°09'0 0.0
2014-Nov-18 04:33N 40°38' W 074°09'0 0.0
2014-Nov-18 03:33N 40°38' W 074°09'0 0.0
2014-Nov-18 02:33N 40°38' W 074°09'0 0.0
2014-Nov-18 01:33N 40°38' W 074°09'0 0.0
2014-Nov-18 00:33N 40°38' W 074°09'0 0.0
2014-Nov-17 23:33N 40°38' W 074°09'0 0.0
2014-Nov-17 22:33N 40°38' W 074°09'0 0.0
2014-Nov-17 21:33N 40°38' W 074°09'0 0.0
2014-Nov-17 20:33N 40°38' W 074°09'0 0.0
2014-Nov-17 19:33N 40°38' W 074°09'0 0.0
2014-Nov-17 18:34N 40°38' W 074°09'0 0.0
2014-Nov-17 17:34N 40°38' W 074°09'  

Dump ship's entire track history